EGPN - Dundee-Riverside
Distance from station: E 5mi, 14km
Updated: 07/18/2018 12:50pm
NOT Current
Few Clouds
Few Clouds
 Wind from varies
Wind: varies 2 mph , 4 km/h
Temperature: 66°F , 19°C
Dew Point: 55°F , 13°C
Humidity: 68%
Barometer: 30.03 inHg , 1017 hPa
Clouds: Few Clouds
Visibility: 6 miles , 10 km
Cloud details: Few Clouds 4500 ft
2018/07/18 19:50 EGPN 181950Z VRB02KT 9999 FEW045 19/13 Q1017